createdAt,value
2022-09-02T00:01:02.368Z,79.60
2022-09-02T00:06:02.772Z,79.10
2022-09-02T00:11:03.538Z,79.60
2022-09-02T00:16:03.768Z,79.60
2022-09-02T00:21:03.822Z,79.80
2022-09-02T00:26:02.299Z,79.70
2022-09-02T00:31:00.644Z,80.20
2022-09-02T00:36:01.070Z,80.60
2022-09-02T00:41:02.301Z,80.40
2022-09-02T00:46:00.650Z,80.70
2022-09-02T00:50:59.721Z,80.60
2022-09-02T00:56:01.855Z,80.80
2022-09-02T01:01:01.447Z,81.60
2022-09-02T01:06:02.470Z,82.00
2022-09-02T01:11:04.749Z,82.10
2022-09-02T01:16:12.129Z,83.30
2022-09-02T01:21:11.061Z,83.00
2022-09-02T01:26:10.972Z,82.80
2022-09-02T01:31:09.378Z,82.50
2022-09-02T01:36:08.818Z,82.70
2022-09-02T01:41:07.342Z,83.30
2022-09-02T01:46:07.578Z,83.50
2022-09-02T01:51:06.421Z,83.80
2022-09-02T01:56:05.138Z,83.60
2022-09-02T02:01:07.928Z,84.00
2022-09-02T02:06:11.281Z,84.70
2022-09-02T02:11:11.462Z,84.60
2022-09-02T02:16:11.646Z,85.20
2022-09-02T02:21:10.305Z,85.00
2022-09-02T02:26:08.956Z,84.80
2022-09-02T02:31:08.078Z,84.90
2022-09-02T02:36:09.623Z,85.10
2022-09-02T02:41:10.344Z,85.50
2022-09-02T02:46:09.318Z,85.80
2022-09-02T02:51:11.153Z,86.00
2022-09-02T02:56:11.519Z,86.50
2022-09-02T03:01:10.151Z,86.00
2022-09-02T03:06:10.416Z,86.10
2022-09-02T03:11:09.448Z,86.80
2022-09-02T03:16:11.738Z,86.70
2022-09-02T03:21:16.103Z,87.30
2022-09-02T03:26:19.365Z,88.00
2022-09-02T03:31:24.094Z,88.20
2022-09-02T03:36:27.180Z,88.00
2022-09-02T03:41:26.859Z,88.30
2022-09-02T03:46:27.122Z,87.90
2022-09-02T03:51:29.249Z,87.80
2022-09-02T03:56:27.866Z,88.20
2022-09-02T04:01:28.998Z,88.40
2022-09-02T04:06:36.043Z,88.20
2022-09-02T04:11:35.577Z,88.80
2022-09-02T04:16:35.312Z,88.60
2022-09-02T04:21:41.694Z,88.40
2022-09-02T04:26:45.062Z,89.00
2022-09-02T04:31:44.518Z,88.90
2022-09-02T04:36:44.348Z,89.00
2022-09-02T04:41:44.035Z,88.70
2022-09-02T04:46:44.500Z,89.30
2022-09-02T04:51:49.118Z,88.50
2022-09-02T04:56:47.611Z,88.80
2022-09-02T05:01:46.576Z,89.00
2022-09-02T05:06:53.197Z,89.30
2022-09-02T05:11:52.140Z,89.30
2022-09-02T05:16:54.969Z,89.20
2022-09-02T05:21:57.609Z,89.90
2022-09-02T05:27:01.031Z,89.90
2022-09-02T05:32:04.210Z,90.20
2022-09-02T05:37:05.447Z,90.00
2022-09-02T05:42:06.791Z,90.50
2022-09-02T05:47:06.285Z,90.80
2022-09-02T05:52:10.209Z,90.50
2022-09-02T05:57:17.436Z,90.80
2022-09-02T06:02:36.151Z,91.30
2022-09-02T06:07:37.839Z,91.40
2022-09-02T06:12:40.691Z,91.30
2022-09-02T06:17:41.524Z,91.70
2022-09-02T06:22:42.680Z,90.80
2022-09-02T06:27:41.404Z,90.90
2022-09-02T06:32:40.529Z,91.60
2022-09-02T06:37:43.398Z,91.30
2022-09-02T06:42:42.571Z,90.90
2022-09-02T06:48:05.699Z,90.90
2022-09-02T06:53:11.845Z,90.30
2022-09-02T06:58:11.736Z,90.00
2022-09-02T07:03:30.017Z,89.70
2022-09-02T07:08:30.389Z,88.60
2022-09-02T07:13:29.461Z,88.30
2022-09-02T07:18:28.396Z,87.20
2022-09-02T07:23:27.476Z,87.00
2022-09-02T07:28:28.025Z,86.50
2022-09-02T07:33:26.668Z,87.10
2022-09-02T07:38:25.147Z,86.20
2022-09-02T07:43:26.372Z,85.70
2022-09-02T07:48:28.069Z,84.80
2022-09-02T07:53:27.567Z,84.20
2022-09-02T07:58:26.695Z,83.90
2022-09-02T08:03:27.053Z,83.60
2022-09-02T08:08:28.418Z,83.10
2022-09-02T08:13:27.777Z,83.00
2022-09-02T08:18:27.797Z,82.30
2022-09-02T08:23:36.707Z,82.10
2022-09-02T08:28:36.281Z,80.80
2022-09-02T08:33:35.957Z,79.50
2022-09-02T08:38:34.348Z,80.70
2022-09-02T08:43:40.150Z,78.20
2022-09-02T08:48:45.301Z,78.40
2022-09-02T08:53:51.247Z,77.60
2022-09-02T08:58:53.035Z,76.50
2022-09-02T09:04:10.735Z,77.70
2022-09-02T09:09:17.471Z,75.20
2022-09-02T09:14:24.909Z,74.40
2022-09-02T09:19:37.486Z,73.90
2022-09-02T09:24:39.339Z,73.80
2022-09-02T09:29:37.755Z,74.40
2022-09-02T09:35:05.027Z,72.60
2022-09-02T09:40:21.625Z,71.40
2022-09-02T09:45:22.875Z,70.60
2022-09-02T09:50:22.765Z,70.10
2022-09-02T09:55:25.318Z,70.50
2022-09-02T10:00:31.980Z,68.80
2022-09-02T10:05:35.367Z,68.90
2022-09-02T10:10:35.675Z,69.40
2022-09-02T10:15:42.465Z,70.40
2022-09-02T10:21:04.874Z,68.50
2022-09-02T10:26:18.877Z,67.90
2022-09-02T10:31:25.621Z,67.30
2022-09-02T10:36:33.976Z,66.40
2022-09-02T10:46:53.970Z,66.50
2022-09-02T10:52:05.482Z,66.60
2022-09-02T10:57:10.232Z,65.50
2022-09-02T11:02:16.127Z,65.60
2022-09-02T11:07:20.609Z,65.90
2022-09-02T11:12:23.456Z,66.60
2022-09-02T11:17:26.178Z,65.00
2022-09-02T11:22:31.283Z,64.60
2022-09-02T11:27:45.117Z,65.00
2022-09-02T11:32:48.615Z,65.20
2022-09-02T11:37:53.520Z,65.60
2022-09-02T11:43:05.022Z,64.10
2022-09-02T11:48:38.920Z,63.40
2022-09-02T11:53:41.672Z,63.00
2022-09-02T11:58:41.802Z,62.10
2022-09-02T12:04:06.845Z,62.20
2022-09-02T12:09:12.021Z,62.60
2022-09-02T12:14:13.737Z,61.90
2022-09-02T12:19:41.904Z,62.30
2022-09-02T12:24:52.757Z,60.90
2022-09-02T12:29:55.690Z,60.50
2022-09-02T12:34:56.686Z,60.10
2022-09-02T12:40:03.278Z,59.70
2022-09-02T12:45:10.964Z,59.80
2022-09-02T12:50:18.353Z,59.50
2022-09-02T12:55:24.982Z,58.70
2022-09-02T13:00:33.104Z,58.40
2022-09-02T13:05:41.053Z,58.90
2022-09-02T13:10:56.147Z,59.40
2022-09-02T13:16:18.375Z,60.30
2022-09-02T13:21:50.832Z,60.50
2022-09-02T13:27:36.668Z,59.10
2022-09-02T13:32:37.490Z,58.80
2022-09-02T13:37:38.200Z,58.80
2022-09-02T13:42:37.342Z,59.80
2022-09-02T13:47:37.704Z,58.80
2022-09-02T13:53:34.369Z,58.60
2022-09-02T13:58:00.589Z,58.70
2022-09-02T14:03:02.978Z,58.80
2022-09-02T14:08:04.087Z,58.80
2022-09-02T14:13:05.168Z,58.40
2022-09-02T14:18:18.155Z,59.80
2022-09-02T14:23:18.238Z,59.00
2022-09-02T14:28:21.577Z,59.30
2022-09-02T14:33:42.221Z,59.10
2022-09-02T14:38:52.460Z,58.80
2022-09-02T14:43:54.081Z,59.40
2022-09-02T14:48:58.073Z,59.40
2022-09-02T14:53:56.466Z,59.30
2022-09-02T14:58:54.926Z,58.80
2022-09-02T15:03:54.686Z,59.20
2022-09-02T15:08:52.966Z,59.20
2022-09-02T15:13:51.319Z,58.60
2022-09-02T15:18:49.759Z,58.60
2022-09-02T15:23:51.301Z,59.00
2022-09-02T15:28:49.751Z,58.00
2022-09-02T15:33:51.710Z,58.60
2022-09-02T15:38:51.538Z,58.60
2022-09-02T15:43:51.100Z,58.50
2022-09-02T15:48:50.096Z,58.50
2022-09-02T15:53:50.074Z,59.80
2022-09-02T15:58:57.889Z,59.10
2022-09-02T16:03:57.875Z,59.20
2022-09-02T16:08:56.615Z,58.60
2022-09-02T16:13:56.526Z,58.30
2022-09-02T16:18:55.651Z,58.80
2022-09-02T16:23:54.026Z,58.70
2022-09-02T16:28:53.712Z,58.80
2022-09-02T16:33:58.020Z,58.70
2022-09-02T16:38:57.370Z,59.00
2022-09-02T16:43:57.143Z,58.40
2022-09-02T16:48:57.179Z,58.70
2022-09-02T16:53:56.883Z,59.40
2022-09-02T16:58:55.940Z,59.40
2022-09-02T17:03:54.332Z,59.00
2022-09-02T17:08:54.141Z,59.20
2022-09-02T17:13:54.571Z,59.50
2022-09-02T17:18:53.808Z,59.60
2022-09-02T17:23:54.670Z,59.60
2022-09-02T17:28:54.835Z,60.00
2022-09-02T17:33:54.781Z,60.00
2022-09-02T17:38:58.939Z,60.20
2022-09-02T17:43:57.877Z,60.50
2022-09-02T17:49:15.943Z,61.10
2022-09-02T17:54:17.096Z,61.40
2022-09-02T17:59:21.546Z,61.20
2022-09-02T18:04:27.743Z,62.30
2022-09-02T18:09:29.378Z,62.20
2022-09-02T18:14:36.673Z,61.90
2022-09-02T18:19:46.247Z,62.50
2022-09-02T18:24:59.668Z,62.60
2022-09-02T18:30:06.465Z,63.30
2022-09-02T18:35:16.627Z,63.40
2022-09-02T18:40:28.543Z,63.80
2022-09-02T18:45:32.174Z,63.60
2022-09-02T18:50:52.235Z,63.90
2022-09-02T18:55:53.912Z,64.30
2022-09-02T19:00:56.759Z,64.70
2022-09-02T19:05:56.794Z,64.40
2022-09-02T19:11:02.066Z,64.80
2022-09-02T19:16:04.129Z,64.80
2022-09-02T19:21:04.160Z,65.10
2022-09-02T19:26:04.068Z,65.30
2022-09-02T19:31:04.431Z,65.30
2022-09-02T19:36:03.076Z,65.10
2022-09-02T19:41:01.747Z,65.40
2022-09-02T19:46:01.500Z,65.70
2022-09-02T19:50:59.810Z,65.80
2022-09-02T19:55:58.150Z,66.40
2022-09-02T20:00:57.099Z,66.30
2022-09-02T20:05:57.090Z,66.90
2022-09-02T20:10:56.792Z,66.40
2022-09-02T20:15:55.745Z,66.20
2022-09-02T20:20:57.422Z,66.40
2022-09-02T20:26:12.919Z,66.10
2022-09-02T20:31:19.079Z,67.10
2022-09-02T20:36:26.653Z,67.30
2022-09-02T20:41:35.009Z,67.00
2022-09-02T20:46:48.113Z,67.30
2022-09-02T20:51:54.895Z,68.10
2022-09-02T20:57:06.161Z,68.90
2022-09-02T21:02:06.091Z,67.70
2022-09-02T21:07:11.654Z,67.60
2022-09-02T21:12:19.679Z,67.90
2022-09-02T21:17:23.623Z,68.60
2022-09-02T21:22:27.120Z,68.10
2022-09-02T21:27:30.057Z,68.30
2022-09-02T21:32:34.948Z,69.40
2022-09-02T21:37:36.893Z,69.10
2022-09-02T21:42:50.667Z,69.40
2022-09-02T21:47:56.984Z,69.80
2022-09-02T21:53:04.973Z,69.20
2022-09-02T21:58:23.199Z,69.50
2022-09-02T22:03:40.047Z,69.50
2022-09-02T22:08:44.688Z,69.50
2022-09-02T22:13:43.143Z,69.50
2022-09-02T22:18:48.978Z,70.10
2022-09-02T22:23:49.261Z,69.70
2022-09-02T22:28:51.473Z,70.00
2022-09-02T22:33:55.855Z,69.20
2022-09-02T22:39:01.165Z,70.10
2022-09-02T22:44:05.155Z,69.70
2022-09-02T22:49:26.606Z,70.20
2022-09-02T22:54:28.010Z,70.00
2022-09-02T22:59:53.772Z,70.30
2022-09-02T23:05:06.480Z,70.40
2022-09-02T23:10:18.812Z,70.30
2022-09-02T23:15:32.474Z,70.90
2022-09-02T23:20:40.275Z,71.40
2022-09-02T23:26:03.869Z,70.80
2022-09-02T23:31:08.786Z,70.30
2022-09-02T23:36:13.991Z,71.00
2022-09-02T23:41:14.976Z,71.30
2022-09-02T23:46:25.146Z,71.30
2022-09-02T23:51:32.250Z,71.20
2022-09-02T23:56:46.632Z,72.00
